sensor_id;sensor_type;location;lat;lon;timestamp;P1;durP1;ratioP1;P2;durP2;ratioP2
74945;SDS011;63509;45.250;38.102;2023-07-28T00:00:17;11.45;;;7.07;;
74945;SDS011;63509;45.250;38.102;2023-07-28T00:02:43;9.63;;;7.13;;
74945;SDS011;63509;45.250;38.102;2023-07-28T00:05:09;10.02;;;7.70;;
74945;SDS011;63509;45.250;38.102;2023-07-28T00:07:35;9.45;;;7.10;;
74945;SDS011;63509;45.250;38.102;2023-07-28T00:10:02;8.48;;;6.10;;
74945;SDS011;63509;45.250;38.102;2023-07-28T00:12:28;8.85;;;7.32;;
74945;SDS011;63509;45.250;38.102;2023-07-28T00:14:54;9.63;;;7.63;;
74945;SDS011;63509;45.250;38.102;2023-07-28T00:17:20;9.95;;;6.88;;
74945;SDS011;63509;45.250;38.102;2023-07-28T00:19:46;16.33;;;8.85;;
74945;SDS011;63509;45.250;38.102;2023-07-28T00:22:15;11.73;;;7.30;;
74945;SDS011;63509;45.250;38.102;2023-07-28T00:24:41;6.72;;;5.28;;
74945;SDS011;63509;45.250;38.102;2023-07-28T00:27:07;8.70;;;6.88;;
74945;SDS011;63509;45.250;38.102;2023-07-28T00:29:33;10.70;;;6.35;;
74945;SDS011;63509;45.250;38.102;2023-07-28T00:32:01;9.52;;;6.10;;
74945;SDS011;63509;45.250;38.102;2023-07-28T00:34:27;9.20;;;5.80;;
74945;SDS011;63509;45.250;38.102;2023-07-28T00:36:53;8.73;;;6.60;;
74945;SDS011;63509;45.250;38.102;2023-07-28T00:39:19;8.18;;;5.50;;
74945;SDS011;63509;45.250;38.102;2023-07-28T00:41:45;9.25;;;6.10;;
74945;SDS011;63509;45.250;38.102;2023-07-28T00:44:11;11.85;;;5.55;;
74945;SDS011;63509;45.250;38.102;2023-07-28T00:46:40;12.63;;;6.07;;
74945;SDS011;63509;45.250;38.102;2023-07-28T00:49:06;10.35;;;6.40;;
74945;SDS011;63509;45.250;38.102;2023-07-28T00:51:32;12.57;;;7.22;;
74945;SDS011;63509;45.250;38.102;2023-07-28T00:53:59;10.88;;;7.05;;
74945;SDS011;63509;45.250;38.102;2023-07-28T00:56:27;11.68;;;6.82;;
74945;SDS011;63509;45.250;38.102;2023-07-28T00:58:54;10.25;;;5.63;;
74945;SDS011;63509;45.250;38.102;2023-07-28T01:01:20;12.50;;;6.53;;
74945;SDS011;63509;45.250;38.102;2023-07-28T01:03:47;8.30;;;6.63;;
74945;SDS011;63509;45.250;38.102;2023-07-28T01:06:18;9.43;;;6.10;;
74945;SDS011;63509;45.250;38.102;2023-07-28T01:08:57;9.98;;;6.03;;
74945;SDS011;63509;45.250;38.102;2023-07-28T01:11:31;8.95;;;6.32;;
74945;SDS011;63509;45.250;38.102;2023-07-28T01:13:57;12.50;;;6.50;;
74945;SDS011;63509;45.250;38.102;2023-07-28T01:16:24;9.32;;;5.55;;
74945;SDS011;63509;45.250;38.102;2023-07-28T01:18:50;10.02;;;6.07;;
74945;SDS011;63509;45.250;38.102;2023-07-28T01:21:26;10.38;;;6.63;;
74945;SDS011;63509;45.250;38.102;2023-07-28T01:23:59;15.60;;;7.97;;
74945;SDS011;63509;45.250;38.102;2023-07-28T01:26:35;11.18;;;6.95;;
74945;SDS011;63509;45.250;38.102;2023-07-28T01:29:03;14.80;;;8.90;;
74945;SDS011;63509;45.250;38.102;2023-07-28T01:31:30;10.57;;;7.82;;
74945;SDS011;63509;45.250;38.102;2023-07-28T01:33:58;13.57;;;7.68;;
74945;SDS011;63509;45.250;38.102;2023-07-28T01:36:24;14.30;;;7.53;;
74945;SDS011;63509;45.250;38.102;2023-07-28T01:38:50;10.63;;;6.53;;
74945;SDS011;63509;45.250;38.102;2023-07-28T01:41:16;7.95;;;5.97;;
74945;SDS011;63509;45.250;38.102;2023-07-28T01:43:42;11.15;;;6.57;;
74945;SDS011;63509;45.250;38.102;2023-07-28T01:46:09;12.32;;;4.68;;
74945;SDS011;63509;45.250;38.102;2023-07-28T01:48:35;10.98;;;5.68;;
74945;SDS011;63509;45.250;38.102;2023-07-28T01:51:01;9.25;;;6.05;;
74945;SDS011;63509;45.250;38.102;2023-07-28T01:53:27;7.57;;;6.05;;
74945;SDS011;63509;45.250;38.102;2023-07-28T01:55:53;10.60;;;5.28;;
74945;SDS011;63509;45.250;38.102;2023-07-28T01:58:19;10.00;;;5.65;;
74945;SDS011;63509;45.250;38.102;2023-07-28T02:00:45;11.23;;;5.40;;
74945;SDS011;63509;45.250;38.102;2023-07-28T02:03:12;7.95;;;4.68;;
74945;SDS011;63509;45.250;38.102;2023-07-28T02:05:38;11.57;;;4.85;;
74945;SDS011;63509;45.250;38.102;2023-07-28T02:08:04;8.73;;;4.50;;
74945;SDS011;63509;45.250;38.102;2023-07-28T02:10:30;17.30;;;4.75;;
74945;SDS011;63509;45.250;38.102;2023-07-28T02:12:56;7.85;;;3.70;;
74945;SDS011;63509;45.250;38.102;2023-07-28T02:15:22;10.10;;;3.58;;
74945;SDS011;63509;45.250;38.102;2023-07-28T02:17:51;6.70;;;3.40;;
74945;SDS011;63509;45.250;38.102;2023-07-28T02:20:17;9.93;;;2.97;;
74945;SDS011;63509;45.250;38.102;2023-07-28T02:22:44;5.57;;;2.63;;
74945;SDS011;63509;45.250;38.102;2023-07-28T02:25:10;8.88;;;2.60;;
74945;SDS011;63509;45.250;38.102;2023-07-28T02:27:37;10.65;;;2.28;;
74945;SDS011;63509;45.250;38.102;2023-07-28T02:30:04;9.27;;;2.75;;
74945;SDS011;63509;45.250;38.102;2023-07-28T02:32:32;5.78;;;2.38;;
74945;SDS011;63509;45.250;38.102;2023-07-28T02:34:58;4.80;;;2.33;;
74945;SDS011;63509;45.250;38.102;2023-07-28T02:37:24;6.18;;;1.90;;
74945;SDS011;63509;45.250;38.102;2023-07-28T02:39:51;13.85;;;2.25;;
74945;SDS011;63509;45.250;38.102;2023-07-28T02:42:17;3.90;;;1.67;;
74945;SDS011;63509;45.250;38.102;2023-07-28T02:44:43;6.13;;;2.28;;
74945;SDS011;63509;45.250;38.102;2023-07-28T02:47:09;5.70;;;2.08;;
74945;SDS011;63509;45.250;38.102;2023-07-28T02:49:35;5.57;;;1.98;;
74945;SDS011;63509;45.250;38.102;2023-07-28T02:52:01;4.90;;;2.15;;
74945;SDS011;63509;45.250;38.102;2023-07-28T02:54:28;6.65;;;1.73;;
74945;SDS011;63509;45.250;38.102;2023-07-28T02:56:55;5.05;;;2.35;;
74945;SDS011;63509;45.250;38.102;2023-07-28T02:59:21;6.70;;;1.85;;
74945;SDS011;63509;45.250;38.102;2023-07-28T03:04:18;9.15;;;1.70;;
74945;SDS011;63509;45.250;38.102;2023-07-28T03:07:17;6.10;;;1.70;;
74945;SDS011;63509;45.250;38.102;2023-07-28T03:09:48;13.18;;;2.25;;
74945;SDS011;63509;45.250;38.102;2023-07-28T03:12:14;10.95;;;2.05;;
74945;SDS011;63509;45.250;38.102;2023-07-28T03:14:40;9.13;;;1.90;;
74945;SDS011;63509;45.250;38.102;2023-07-28T03:17:07;8.05;;;2.55;;
74945;SDS011;63509;45.250;38.102;2023-07-28T03:19:33;7.57;;;1.80;;
74945;SDS011;63509;45.250;38.102;2023-07-28T03:21:59;9.63;;;2.67;;
74945;SDS011;63509;45.250;38.102;2023-07-28T03:24:25;7.30;;;1.48;;
74945;SDS011;63509;45.250;38.102;2023-07-28T03:26:51;8.43;;;2.38;;
74945;SDS011;63509;45.250;38.102;2023-07-28T03:29:17;4.43;;;2.05;;
74945;SDS011;63509;45.250;38.102;2023-07-28T03:31:43;4.57;;;2.00;;
74945;SDS011;63509;45.250;38.102;2023-07-28T03:34:10;3.90;;;1.92;;
74945;SDS011;63509;45.250;38.102;2023-07-28T03:36:36;5.95;;;1.90;;
74945;SDS011;63509;45.250;38.102;2023-07-28T03:39:02;9.23;;;2.08;;
74945;SDS011;63509;45.250;38.102;2023-07-28T03:41:29;7.38;;;2.40;;
74945;SDS011;63509;45.250;38.102;2023-07-28T03:43:55;6.00;;;1.98;;
74945;SDS011;63509;45.250;38.102;2023-07-28T03:46:22;8.38;;;2.60;;
74945;SDS011;63509;45.250;38.102;2023-07-28T03:48:48;12.95;;;4.28;;
74945;SDS011;63509;45.250;38.102;2023-07-28T03:51:14;12.82;;;4.82;;
74945;SDS011;63509;45.250;38.102;2023-07-28T03:53:40;7.55;;;3.47;;
74945;SDS011;63509;45.250;38.102;2023-07-28T03:56:06;9.52;;;2.63;;
74945;SDS011;63509;45.250;38.102;2023-07-28T03:58:32;7.30;;;2.80;;
74945;SDS011;63509;45.250;38.102;2023-07-28T04:00:58;8.75;;;2.28;;
74945;SDS011;63509;45.250;38.102;2023-07-28T04:03:24;8.27;;;2.13;;
74945;SDS011;63509;45.250;38.102;2023-07-28T04:05:51;12.65;;;2.45;;
74945;SDS011;63509;45.250;38.102;2023-07-28T04:08:17;8.35;;;2.25;;
74945;SDS011;63509;45.250;38.102;2023-07-28T04:10:43;4.53;;;2.17;;
74945;SDS011;63509;45.250;38.102;2023-07-28T04:13:09;8.45;;;2.15;;
74945;SDS011;63509;45.250;38.102;2023-07-28T04:15:35;9.30;;;1.90;;
74945;SDS011;63509;45.250;38.102;2023-07-28T04:18:01;6.78;;;2.17;;
74945;SDS011;63509;45.250;38.102;2023-07-28T04:20:27;6.95;;;1.80;;
74945;SDS011;63509;45.250;38.102;2023-07-28T04:22:53;5.28;;;1.90;;
74945;SDS011;63509;45.250;38.102;2023-07-28T04:25:19;5.85;;;1.88;;
74945;SDS011;63509;45.250;38.102;2023-07-28T04:27:47;9.48;;;1.88;;
74945;SDS011;63509;45.250;38.102;2023-07-28T04:30:13;8.02;;;1.58;;
74945;SDS011;63509;45.250;38.102;2023-07-28T04:32:39;5.82;;;2.63;;
74945;SDS011;63509;45.250;38.102;2023-07-28T04:35:12;4.55;;;1.80;;
74945;SDS011;63509;45.250;38.102;2023-07-28T04:37:50;5.38;;;2.03;;
74945;SDS011;63509;45.250;38.102;2023-07-28T04:40:30;8.32;;;2.28;;
74945;SDS011;63509;45.250;38.102;2023-07-28T04:42:56;9.55;;;2.08;;
74945;SDS011;63509;45.250;38.102;2023-07-28T04:45:22;4.32;;;1.98;;
74945;SDS011;63509;45.250;38.102;2023-07-28T04:47:48;13.07;;;2.17;;
74945;SDS011;63509;45.250;38.102;2023-07-28T04:50:14;5.50;;;2.00;;
74945;SDS011;63509;45.250;38.102;2023-07-28T04:53:09;10.23;;;2.15;;
74945;SDS011;63509;45.250;38.102;2023-07-28T04:56:00;11.52;;;2.45;;
74945;SDS011;63509;45.250;38.102;2023-07-28T04:58:26;4.75;;;2.03;;
74945;SDS011;63509;45.250;38.102;2023-07-28T05:00:53;6.70;;;2.63;;
74945;SDS011;63509;45.250;38.102;2023-07-28T05:03:20;7.05;;;2.47;;
74945;SDS011;63509;45.250;38.102;2023-07-28T05:05:54;7.07;;;2.00;;
74945;SDS011;63509;45.250;38.102;2023-07-28T05:08:20;7.10;;;1.77;;
74945;SDS011;63509;45.250;38.102;2023-07-28T05:10:46;7.82;;;2.20;;
74945;SDS011;63509;45.250;38.102;2023-07-28T05:13:13;8.55;;;2.30;;
74945;SDS011;63509;45.250;38.102;2023-07-28T05:15:47;7.85;;;2.10;;
74945;SDS011;63509;45.250;38.102;2023-07-28T05:18:26;15.45;;;2.70;;
74945;SDS011;63509;45.250;38.102;2023-07-28T05:21:10;5.68;;;2.17;;
74945;SDS011;63509;45.250;38.102;2023-07-28T05:23:36;6.72;;;2.40;;
74945;SDS011;63509;45.250;38.102;2023-07-28T05:26:02;5.60;;;2.10;;
74945;SDS011;63509;45.250;38.102;2023-07-28T05:28:28;8.02;;;2.05;;
74945;SDS011;63509;45.250;38.102;2023-07-28T05:31:02;4.00;;;1.65;;
74945;SDS011;63509;45.250;38.102;2023-07-28T05:33:30;4.25;;;1.65;;
74945;SDS011;63509;45.250;38.102;2023-07-28T05:36:02;4.82;;;1.92;;
74945;SDS011;63509;45.250;38.102;2023-07-28T05:38:29;21.67;;;3.03;;
74945;SDS011;63509;45.250;38.102;2023-07-28T05:40:56;4.05;;;1.58;;
74945;SDS011;63509;45.250;38.102;2023-07-28T05:43:23;5.00;;;1.65;;
74945;SDS011;63509;45.250;38.102;2023-07-28T05:45:52;4.85;;;2.17;;
74945;SDS011;63509;45.250;38.102;2023-07-28T05:48:19;3.75;;;1.75;;
74945;SDS011;63509;45.250;38.102;2023-07-28T05:50:45;10.23;;;1.70;;
74945;SDS011;63509;45.250;38.102;2023-07-28T05:53:12;9.65;;;1.90;;
74945;SDS011;63509;45.250;38.102;2023-07-28T05:55:40;11.32;;;1.83;;
74945;SDS011;63509;45.250;38.102;2023-07-28T05:58:07;6.22;;;1.77;;
74945;SDS011;63509;45.250;38.102;2023-07-28T06:00:39;9.75;;;1.85;;
74945;SDS011;63509;45.250;38.102;2023-07-28T06:03:10;12.27;;;1.50;;
74945;SDS011;63509;45.250;38.102;2023-07-28T06:05:53;5.30;;;1.70;;
74945;SDS011;63509;45.250;38.102;2023-07-28T06:08:21;3.35;;;1.50;;
74945;SDS011;63509;45.250;38.102;2023-07-28T06:10:48;7.65;;;1.33;;
74945;SDS011;63509;45.250;38.102;2023-07-28T06:13:14;6.13;;;1.40;;
74945;SDS011;63509;45.250;38.102;2023-07-28T06:15:41;5.47;;;1.48;;
74945;SDS011;63509;45.250;38.102;2023-07-28T06:20:34;3.88;;;1.38;;
74945;SDS011;63509;45.250;38.102;2023-07-28T06:23:00;5.13;;;1.60;;
74945;SDS011;63509;45.250;38.102;2023-07-28T06:25:27;8.43;;;1.38;;
74945;SDS011;63509;45.250;38.102;2023-07-28T06:27:53;6.32;;;1.52;;
74945;SDS011;63509;45.250;38.102;2023-07-28T06:30:20;8.73;;;2.00;;
74945;SDS011;63509;45.250;38.102;2023-07-28T06:32:46;8.18;;;1.38;;
74945;SDS011;63509;45.250;38.102;2023-07-28T06:35:12;6.97;;;1.95;;
74945;SDS011;63509;45.250;38.102;2023-07-28T06:37:38;6.35;;;2.25;;
74945;SDS011;63509;45.250;38.102;2023-07-28T06:40:07;12.00;;;1.92;;
74945;SDS011;63509;45.250;38.102;2023-07-28T06:42:35;6.78;;;1.73;;
74945;SDS011;63509;45.250;38.102;2023-07-28T06:45:02;12.45;;;2.03;;
74945;SDS011;63509;45.250;38.102;2023-07-28T06:47:29;5.10;;;1.98;;
74945;SDS011;63509;45.250;38.102;2023-07-28T06:49:55;8.38;;;1.75;;
74945;SDS011;63509;45.250;38.102;2023-07-28T06:52:21;7.35;;;2.85;;
74945;SDS011;63509;45.250;38.102;2023-07-28T06:54:47;9.48;;;2.33;;
74945;SDS011;63509;45.250;38.102;2023-07-28T06:57:15;5.20;;;1.58;;
74945;SDS011;63509;45.250;38.102;2023-07-28T06:59:42;3.78;;;1.00;;
74945;SDS011;63509;45.250;38.102;2023-07-28T07:02:09;5.07;;;1.38;;
74945;SDS011;63509;45.250;38.102;2023-07-28T07:04:35;6.70;;;1.90;;
74945;SDS011;63509;45.250;38.102;2023-07-28T07:07:01;3.65;;;0.95;;
74945;SDS011;63509;45.250;38.102;2023-07-28T07:09:28;2.38;;;0.98;;
74945;SDS011;63509;45.250;38.102;2023-07-28T07:11:54;4.28;;;1.10;;
74945;SDS011;63509;45.250;38.102;2023-07-28T07:14:20;5.63;;;1.20;;
74945;SDS011;63509;45.250;38.102;2023-07-28T07:16:46;5.57;;;1.35;;
74945;SDS011;63509;45.250;38.102;2023-07-28T07:19:12;4.65;;;1.20;;
74945;SDS011;63509;45.250;38.102;2023-07-28T07:21:39;4.60;;;1.38;;
74945;SDS011;63509;45.250;38.102;2023-07-28T07:24:05;3.95;;;1.02;;
74945;SDS011;63509;45.250;38.102;2023-07-28T07:26:31;4.57;;;0.98;;
74945;SDS011;63509;45.250;38.102;2023-07-28T07:28:57;6.30;;;1.50;;
74945;SDS011;63509;45.250;38.102;2023-07-28T07:31:24;5.13;;;1.33;;
74945;SDS011;63509;45.250;38.102;2023-07-28T07:33:50;7.20;;;1.50;;
74945;SDS011;63509;45.250;38.102;2023-07-28T07:36:17;6.05;;;1.25;;
74945;SDS011;63509;45.250;38.102;2023-07-28T07:38:45;3.20;;;0.90;;
74945;SDS011;63509;45.250;38.102;2023-07-28T07:41:15;5.78;;;1.42;;
74945;SDS011;63509;45.250;38.102;2023-07-28T07:43:48;4.85;;;1.13;;
74945;SDS011;63509;45.250;38.102;2023-07-28T07:46:15;6.78;;;1.33;;
74945;SDS011;63509;45.250;38.102;2023-07-28T07:48:42;3.55;;;0.93;;
74945;SDS011;63509;45.250;38.102;2023-07-28T07:51:08;9.93;;;2.20;;
74945;SDS011;63509;45.250;38.102;2023-07-28T07:53:35;4.97;;;1.90;;
74945;SDS011;63509;45.250;38.102;2023-07-28T07:56:04;5.90;;;1.75;;
74945;SDS011;63509;45.250;38.102;2023-07-28T07:58:31;4.55;;;1.55;;
74945;SDS011;63509;45.250;38.102;2023-07-28T08:00:57;3.53;;;1.00;;
74945;SDS011;63509;45.250;38.102;2023-07-28T08:03:25;14.27;;;1.27;;
74945;SDS011;63509;45.250;38.102;2023-07-28T08:05:53;7.85;;;1.92;;
74945;SDS011;63509;45.250;38.102;2023-07-28T08:08:22;6.15;;;1.00;;
74945;SDS011;63509;45.250;38.102;2023-07-28T08:10:59;15.20;;;2.28;;
74945;SDS011;63509;45.250;38.102;2023-07-28T08:13:25;26.73;;;2.17;;
74945;SDS011;63509;45.250;38.102;2023-07-28T08:15:53;3.33;;;0.98;;
74945;SDS011;63509;45.250;38.102;2023-07-28T08:18:19;5.03;;;1.00;;
74945;SDS011;63509;45.250;38.102;2023-07-28T08:20:45;3.53;;;1.42;;
74945;SDS011;63509;45.250;38.102;2023-07-28T08:23:11;7.38;;;0.88;;
74945;SDS011;63509;45.250;38.102;2023-07-28T08:25:38;4.15;;;0.57;;
74945;SDS011;63509;45.250;38.102;2023-07-28T08:28:04;3.65;;;0.60;;
74945;SDS011;63509;45.250;38.102;2023-07-28T08:30:30;1.80;;;0.70;;
74945;SDS011;63509;45.250;38.102;2023-07-28T08:32:57;2.60;;;0.65;;
74945;SDS011;63509;45.250;38.102;2023-07-28T08:35:23;1.75;;;0.73;;
74945;SDS011;63509;45.250;38.102;2023-07-28T08:37:49;9.90;;;1.17;;
74945;SDS011;63509;45.250;38.102;2023-07-28T08:40:16;8.02;;;2.33;;
74945;SDS011;63509;45.250;38.102;2023-07-28T08:42:42;4.03;;;1.48;;
74945;SDS011;63509;45.250;38.102;2023-07-28T08:45:09;10.52;;;1.45;;
74945;SDS011;63509;45.250;38.102;2023-07-28T08:47:36;4.47;;;1.38;;
74945;SDS011;63509;45.250;38.102;2023-07-28T08:50:03;6.63;;;1.45;;
74945;SDS011;63509;45.250;38.102;2023-07-28T08:52:29;10.05;;;1.27;;
74945;SDS011;63509;45.250;38.102;2023-07-28T08:54:55;2.40;;;0.93;;
74945;SDS011;63509;45.250;38.102;2023-07-28T08:57:21;2.90;;;1.30;;
74945;SDS011;63509;45.250;38.102;2023-07-28T08:59:47;3.55;;;1.48;;
74945;SDS011;63509;45.250;38.102;2023-07-28T09:02:15;4.55;;;1.58;;
74945;SDS011;63509;45.250;38.102;2023-07-28T09:04:43;1.85;;;0.90;;
74945;SDS011;63509;45.250;38.102;2023-07-28T09:07:10;1.80;;;0.93;;
74945;SDS011;63509;45.250;38.102;2023-07-28T09:09:37;1.95;;;0.70;;
74945;SDS011;63509;45.250;38.102;2023-07-28T09:12:03;3.47;;;0.98;;
74945;SDS011;63509;45.250;38.102;2023-07-28T09:14:30;2.40;;;0.70;;
74945;SDS011;63509;45.250;38.102;2023-07-28T09:17:05;14.05;;;1.20;;
74945;SDS011;63509;45.250;38.102;2023-07-28T09:19:33;6.18;;;0.93;;
74945;SDS011;63509;45.250;38.102;2023-07-28T09:22:00;2.03;;;0.90;;
74945;SDS011;63509;45.250;38.102;2023-07-28T09:24:31;1.25;;;0.70;;
74945;SDS011;63509;45.250;38.102;2023-07-28T09:26:58;2.22;;;0.60;;
74945;SDS011;63509;45.250;38.102;2023-07-28T09:29:25;1.90;;;0.63;;
74945;SDS011;63509;45.250;38.102;2023-07-28T09:31:53;4.20;;;0.85;;
74945;SDS011;63509;45.250;38.102;2023-07-28T09:34:28;2.78;;;1.02;;
74945;SDS011;63509;45.250;38.102;2023-07-28T09:36:57;4.47;;;0.63;;
74945;SDS011;63509;45.250;38.102;2023-07-28T09:39:24;0.95;;;0.38;;
74945;SDS011;63509;45.250;38.102;2023-07-28T09:41:51;2.58;;;0.73;;
74945;SDS011;63509;45.250;38.102;2023-07-28T09:44:18;1.30;;;0.40;;
74945;SDS011;63509;45.250;38.102;2023-07-28T09:46:57;4.88;;;0.30;;
74945;SDS011;63509;45.250;38.102;2023-07-28T09:49:36;4.22;;;0.55;;
74945;SDS011;63509;45.250;38.102;2023-07-28T09:52:05;1.00;;;0.47;;
74945;SDS011;63509;45.250;38.102;2023-07-28T09:54:38;1.42;;;0.60;;
74945;SDS011;63509;45.250;38.102;2023-07-28T09:57:07;0.82;;;0.50;;
74945;SDS011;63509;45.250;38.102;2023-07-28T09:59:39;2.00;;;0.57;;
74945;SDS011;63509;45.250;38.102;2023-07-28T10:02:06;2.00;;;0.68;;
74945;SDS011;63509;45.250;38.102;2023-07-28T10:04:34;1.50;;;0.80;;
74945;SDS011;63509;45.250;38.102;2023-07-28T10:07:01;4.72;;;0.93;;
74945;SDS011;63509;45.250;38.102;2023-07-28T10:09:29;1.58;;;1.02;;
74945;SDS011;63509;45.250;38.102;2023-07-28T10:11:59;1.25;;;0.68;;
74945;SDS011;63509;45.250;38.102;2023-07-28T10:14:26;0.82;;;0.30;;
74945;SDS011;63509;45.250;38.102;2023-07-28T10:16:54;1.67;;;0.82;;
74945;SDS011;63509;45.250;38.102;2023-07-28T10:19:20;4.60;;;1.40;;
74945;SDS011;63509;45.250;38.102;2023-07-28T10:21:46;2.88;;;0.85;;
74945;SDS011;63509;45.250;38.102;2023-07-28T10:24:13;1.55;;;0.57;;
74945;SDS011;63509;45.250;38.102;2023-07-28T10:26:40;1.58;;;0.68;;
74945;SDS011;63509;45.250;38.102;2023-07-28T10:29:10;1.70;;;0.70;;
74945;SDS011;63509;45.250;38.102;2023-07-28T10:31:54;12.43;;;0.93;;
74945;SDS011;63509;45.250;38.102;2023-07-28T10:34:22;2.17;;;0.57;;
74945;SDS011;63509;45.250;38.102;2023-07-28T10:36:55;4.60;;;0.50;;
74945;SDS011;63509;45.250;38.102;2023-07-28T10:39:24;1.25;;;0.50;;
74945;SDS011;63509;45.250;38.102;2023-07-28T10:42:04;2.67;;;1.02;;
74945;SDS011;63509;45.250;38.102;2023-07-28T10:44:32;1.55;;;0.75;;
74945;SDS011;63509;45.250;38.102;2023-07-28T10:46:58;1.77;;;0.60;;
74945;SDS011;63509;45.250;38.102;2023-07-28T10:49:25;10.35;;;0.90;;
74945;SDS011;63509;45.250;38.102;2023-07-28T10:51:51;1.55;;;0.70;;
74945;SDS011;63509;45.250;38.102;2023-07-28T10:54:18;2.40;;;0.75;;
74945;SDS011;63509;45.250;38.102;2023-07-28T10:56:48;3.13;;;0.70;;
74945;SDS011;63509;45.250;38.102;2023-07-28T10:59:14;1.48;;;0.68;;
74945;SDS011;63509;45.250;38.102;2023-07-28T11:01:41;3.67;;;0.80;;
74945;SDS011;63509;45.250;38.102;2023-07-28T11:04:12;2.72;;;1.10;;
74945;SDS011;63509;45.250;38.102;2023-07-28T11:06:42;1.90;;;0.80;;
74945;SDS011;63509;45.250;38.102;2023-07-28T11:09:10;10.00;;;1.27;;
74945;SDS011;63509;45.250;38.102;2023-07-28T11:14:05;1.45;;;0.60;;
74945;SDS011;63509;45.250;38.102;2023-07-28T11:16:33;6.07;;;1.10;;
74945;SDS011;63509;45.250;38.102;2023-07-28T11:19:01;1.50;;;0.82;;
74945;SDS011;63509;45.250;38.102;2023-07-28T11:21:39;1.15;;;0.50;;
74945;SDS011;63509;45.250;38.102;2023-07-28T11:24:10;3.78;;;0.65;;
74945;SDS011;63509;45.250;38.102;2023-07-28T11:26:37;1.80;;;0.65;;
74945;SDS011;63509;45.250;38.102;2023-07-28T11:29:04;1.38;;;0.60;;
74945;SDS011;63509;45.250;38.102;2023-07-28T11:31:31;3.38;;;0.40;;
74945;SDS011;63509;45.250;38.102;2023-07-28T11:33:58;9.88;;;0.98;;
74945;SDS011;63509;45.250;38.102;2023-07-28T11:36:29;4.55;;;0.73;;
74945;SDS011;63509;45.250;38.102;2023-07-28T11:38:59;1.60;;;0.47;;
74945;SDS011;63509;45.250;38.102;2023-07-28T11:41:26;1.20;;;0.60;;
74945;SDS011;63509;45.250;38.102;2023-07-28T11:43:53;1.15;;;0.57;;
74945;SDS011;63509;45.250;38.102;2023-07-28T11:49:09;2.22;;;0.57;;
74945;SDS011;63509;45.250;38.102;2023-07-28T11:51:39;3.65;;;1.10;;
74945;SDS011;63509;45.250;38.102;2023-07-28T11:54:12;1.42;;;0.70;;
74945;SDS011;63509;45.250;38.102;2023-07-28T11:56:43;4.15;;;0.82;;
74945;SDS011;63509;45.250;38.102;2023-07-28T11:59:11;6.20;;;0.88;;
74945;SDS011;63509;45.250;38.102;2023-07-28T12:01:53;4.47;;;0.57;;
74945;SDS011;63509;45.250;38.102;2023-07-28T12:04:26;2.10;;;0.85;;
74945;SDS011;63509;45.250;38.102;2023-07-28T12:07:09;2.13;;;0.70;;
74945;SDS011;63509;45.250;38.102;2023-07-28T12:12:26;1.80;;;0.80;;
74945;SDS011;63509;45.250;38.102;2023-07-28T12:14:57;1.85;;;1.00;;
74945;SDS011;63509;45.250;38.102;2023-07-28T12:17:30;3.55;;;0.98;;
74945;SDS011;63509;45.250;38.102;2023-07-28T12:22:52;4.03;;;0.90;;
74945;SDS011;63509;45.250;38.102;2023-07-28T12:25:18;9.60;;;0.77;;
74945;SDS011;63509;45.250;38.102;2023-07-28T12:27:45;2.78;;;0.85;;
74945;SDS011;63509;45.250;38.102;2023-07-28T12:30:11;2.38;;;1.25;;
74945;SDS011;63509;45.250;38.102;2023-07-28T12:32:39;5.13;;;1.02;;
74945;SDS011;63509;45.250;38.102;2023-07-28T12:35:05;2.03;;;0.90;;
74945;SDS011;63509;45.250;38.102;2023-07-28T12:37:31;7.85;;;0.70;;
74945;SDS011;63509;45.250;38.102;2023-07-28T12:39:57;6.85;;;0.85;;
74945;SDS011;63509;45.250;38.102;2023-07-28T12:42:24;2.53;;;0.63;;
74945;SDS011;63509;45.250;38.102;2023-07-28T12:44:50;3.58;;;1.23;;
74945;SDS011;63509;45.250;38.102;2023-07-28T12:47:16;2.97;;;1.00;;
74945;SDS011;63509;45.250;38.102;2023-07-28T12:49:42;3.88;;;0.70;;
74945;SDS011;63509;45.250;38.102;2023-07-28T12:52:08;2.55;;;0.90;;
74945;SDS011;63509;45.250;38.102;2023-07-28T12:54:34;2.17;;;0.98;;
74945;SDS011;63509;45.250;38.102;2023-07-28T12:57:01;2.05;;;0.45;;
74945;SDS011;63509;45.250;38.102;2023-07-28T12:59:27;2.17;;;0.70;;
74945;SDS011;63509;45.250;38.102;2023-07-28T13:01:55;3.90;;;0.90;;
74945;SDS011;63509;45.250;38.102;2023-07-28T13:04:21;1.75;;;0.75;;
74945;SDS011;63509;45.250;38.102;2023-07-28T13:06:47;1.58;;;0.57;;
74945;SDS011;63509;45.250;38.102;2023-07-28T13:09:14;3.13;;;0.60;;
74945;SDS011;63509;45.250;38.102;2023-07-28T13:11:40;1.73;;;0.52;;
74945;SDS011;63509;45.250;38.102;2023-07-28T13:14:06;2.20;;;1.10;;
74945;SDS011;63509;45.250;38.102;2023-07-28T13:16:32;3.20;;;0.80;;
74945;SDS011;63509;45.250;38.102;2023-07-28T13:18:58;11.45;;;1.25;;
74945;SDS011;63509;45.250;38.102;2023-07-28T13:21:25;3.38;;;0.77;;
74945;SDS011;63509;45.250;38.102;2023-07-28T13:23:51;3.83;;;1.05;;
74945;SDS011;63509;45.250;38.102;2023-07-28T13:26:17;1.25;;;0.65;;
74945;SDS011;63509;45.250;38.102;2023-07-28T13:28:46;5.40;;;0.98;;
74945;SDS011;63509;45.250;38.102;2023-07-28T13:31:16;2.97;;;0.80;;
74945;SDS011;63509;45.250;38.102;2023-07-28T13:33:43;5.97;;;1.20;;
74945;SDS011;63509;45.250;38.102;2023-07-28T13:36:12;2.70;;;0.70;;
74945;SDS011;63509;45.250;38.102;2023-07-28T13:38:41;6.90;;;0.95;;
74945;SDS011;63509;45.250;38.102;2023-07-28T13:41:07;4.40;;;0.82;;
74945;SDS011;63509;45.250;38.102;2023-07-28T13:43:33;3.17;;;0.60;;
74945;SDS011;63509;45.250;38.102;2023-07-28T13:46:03;4.00;;;1.10;;
74945;SDS011;63509;45.250;38.102;2023-07-28T13:48:32;1.58;;;0.65;;
74945;SDS011;63509;45.250;38.102;2023-07-28T13:51:01;3.97;;;1.00;;
74945;SDS011;63509;45.250;38.102;2023-07-28T13:53:27;9.77;;;0.80;;
74945;SDS011;63509;45.250;38.102;2023-07-28T13:55:54;15.65;;;0.98;;
74945;SDS011;63509;45.250;38.102;2023-07-28T13:58:21;2.22;;;0.63;;
74945;SDS011;63509;45.250;38.102;2023-07-28T14:00:47;6.25;;;1.27;;
74945;SDS011;63509;45.250;38.102;2023-07-28T14:03:15;4.47;;;0.80;;
74945;SDS011;63509;45.250;38.102;2023-07-28T14:05:42;2.63;;;0.70;;
74945;SDS011;63509;45.250;38.102;2023-07-28T14:08:08;3.30;;;0.75;;
74945;SDS011;63509;45.250;38.102;2023-07-28T14:10:35;1.63;;;0.85;;
74945;SDS011;63509;45.250;38.102;2023-07-28T14:13:03;2.17;;;0.82;;
74945;SDS011;63509;45.250;38.102;2023-07-28T14:15:30;17.73;;;1.13;;
74945;SDS011;63509;45.250;38.102;2023-07-28T14:17:56;6.50;;;0.95;;
74945;SDS011;63509;45.250;38.102;2023-07-28T14:20:22;5.68;;;1.08;;
74945;SDS011;63509;45.250;38.102;2023-07-28T14:22:48;8.35;;;1.27;;
74945;SDS011;63509;45.250;38.102;2023-07-28T14:25:14;2.25;;;0.77;;
74945;SDS011;63509;45.250;38.102;2023-07-28T14:27:40;2.78;;;0.80;;
74945;SDS011;63509;45.250;38.102;2023-07-28T14:30:06;8.45;;;1.52;;
74945;SDS011;63509;45.250;38.102;2023-07-28T14:32:33;9.15;;;1.10;;
74945;SDS011;63509;45.250;38.102;2023-07-28T14:34:59;6.05;;;1.00;;
74945;SDS011;63509;45.250;38.102;2023-07-28T14:37:25;3.35;;;1.10;;
74945;SDS011;63509;45.250;38.102;2023-07-28T14:39:51;3.78;;;1.20;;
74945;SDS011;63509;45.250;38.102;2023-07-28T14:42:18;2.67;;;0.73;;
74945;SDS011;63509;45.250;38.102;2023-07-28T14:44:45;6.60;;;0.80;;
74945;SDS011;63509;45.250;38.102;2023-07-28T14:47:11;2.72;;;0.80;;
74945;SDS011;63509;45.250;38.102;2023-07-28T14:49:37;3.00;;;0.98;;
74945;SDS011;63509;45.250;38.102;2023-07-28T14:52:03;4.80;;;0.88;;